Time,TemperatureF,DewpointF,PressureIn,WindDirection,WindDirectionDegrees,WindSpeedMPH,WindSpeedGustMPH,Humidity,HourlyPrecipIn,Conditions,Clouds,dailyrainin,SoftwareType,DateUTC
2013-03-19 00:03:00,31.0,31.0,29.74,SE,129,0.0,6.0,100,0.00,,,-99.99,,2013-03-19 04:03:00,
2013-03-19 00:13:00,31.0,31.0,29.74,SE,129,0.0,6.0,100,0.00,,,-99.99,,2013-03-19 04:13:00,
2013-03-19 00:23:00,31.0,31.0,29.74,SE,129,0.0,0.0,100,0.00,,,-99.99,,2013-03-19 04:23:00,
2013-03-19 00:33:00,31.0,31.0,29.74,SSE,150,0.0,0.0,100,0.00,,,-99.99,,2013-03-19 04:33:00,
2013-03-19 00:43:00,31.0,31.0,29.74,SSE,150,0.0,0.0,100,0.00,,,-99.99,,2013-03-19 04:43:00,
2013-03-19 00:52:00,31.0,31.0,29.73,SSE,153,0.0,0.0,100,0.00,,,-99.99,,2013-03-19 04:52:00,
2013-03-19 01:02:00,31.0,31.0,29.72,SSE,165,0.0,0.0,100,0.00,,,-99.99,,2013-03-19 05:02:00,
2013-03-19 01:12:00,31.0,31.0,29.72,SSE,165,0.0,0.0,100,0.00,,,-99.99,,2013-03-19 05:12:00,
2013-03-19 01:22:00,32.0,32.0,29.71,SSE,165,0.0,0.0,100,0.00,,,-99.99,,2013-03-19 05:22:00,
2013-03-19 01:32:00,32.0,32.0,29.71,SSE,165,0.0,0.0,100,0.00,,,-99.99,,2013-03-19 05:32:00,
2013-03-19 01:43:00,32.0,32.0,29.71,SSE,165,0.0,0.0,100,0.00,,,-99.99,,2013-03-19 05:43:00,
2013-03-19 01:52:00,32.0,32.0,29.70,SSE,165,0.0,0.0,100,0.00,,,-99.99,,2013-03-19 05:52:00,
2013-03-19 02:02:00,32.0,32.0,29.70,SSE,165,0.0,0.0,100,0.00,,,-99.99,,2013-03-19 06:02:00,
2013-03-19 02:12:00,32.0,32.0,29.70,SSE,165,0.0,0.0,100,0.00,,,-99.99,,2013-03-19 06:12:00,
2013-03-19 02:22:00,32.0,32.0,29.70,SSE,165,0.0,0.0,100,0.00,,,-99.99,,2013-03-19 06:22:00,
2013-03-19 02:32:00,32.0,32.0,29.71,SSE,165,0.0,0.0,100,0.00,,,-99.99,,2013-03-19 06:32:00,
2013-03-19 02:42:00,32.0,32.0,29.71,SSE,165,0.0,0.0,100,0.00,,,-99.99,,2013-03-19 06:42:00,
2013-03-19 02:52:00,32.0,32.0,29.70,SSE,165,0.0,0.0,100,0.00,,,-99.99,,2013-03-19 06:52:00,
2013-03-19 03:02:00,32.0,32.0,29.70,SSE,165,0.0,0.0,100,0.00,,,-99.99,,2013-03-19 07:02:00,
2013-03-19 03:12:00,32.0,32.0,29.70,SSE,165,0.0,0.0,100,0.00,,,-99.99,,2013-03-19 07:12:00,
2013-03-19 03:21:00,33.0,33.0,29.70,SSE,165,0.0,0.0,100,0.00,,,-99.99,,2013-03-19 07:21:00,
2013-03-19 03:32:00,33.0,33.0,29.68,SSE,165,0.0,0.0,100,0.00,,,-99.99,,2013-03-19 07:32:00,
2013-03-19 03:42:00,33.0,33.0,29.68,SSE,165,0.0,0.0,100,0.00,,,-99.99,,2013-03-19 07:42:00,
2013-03-19 03:52:00,33.0,33.0,29.68,SSE,165,0.0,0.0,100,0.00,,,-99.99,,2013-03-19 07:52:00,
2013-03-19 04:03:00,33.0,33.0,29.67,SSE,165,0.0,0.0,100,0.00,,,-99.99,,2013-03-19 08:03:00,
2013-03-19 04:12:00,33.0,33.0,29.67,SSE,165,0.0,0.0,100,0.00,,,-99.99,,2013-03-19 08:12:00,
2013-03-19 04:22:00,33.0,33.0,29.67,SSE,165,0.0,0.0,100,0.00,,,-99.99,,2013-03-19 08:22:00,
2013-03-19 04:32:00,33.0,33.0,29.67,SSE,165,0.0,0.0,100,0.00,,,-99.99,,2013-03-19 08:32:00,
2013-03-19 04:42:00,33.0,33.0,29.67,SSE,165,0.0,0.0,100,0.00,,,-99.99,,2013-03-19 08:42:00,
2013-03-19 04:52:00,33.0,33.0,29.67,SSE,165,0.0,0.0,100,0.00,,,-99.99,,2013-03-19 08:52:00,
2013-03-19 05:02:00,33.0,33.0,29.68,SSE,165,0.0,0.0,100,0.00,,,-99.99,,2013-03-19 09:02:00,
2013-03-19 05:12:00,33.0,33.0,29.68,SSE,165,0.0,0.0,100,0.00,,,-99.99,,2013-03-19 09:12:00,
2013-03-19 05:22:00,33.0,33.0,29.70,SSE,165,0.0,0.0,100,0.00,,,-99.99,,2013-03-19 09:22:00,
2013-03-19 05:32:00,33.0,33.0,29.70,SSE,165,0.0,0.0,100,0.00,,,-99.99,,2013-03-19 09:32:00,
2013-03-19 05:43:00,33.0,33.0,29.70,SSE,165,0.0,0.0,100,0.00,,,-99.99,,2013-03-19 09:43:00,
2013-03-19 05:52:00,33.0,33.0,29.70,SSE,165,0.0,0.0,100,0.00,,,-99.99,,2013-03-19 09:52:00,
2013-03-19 06:04:00,33.0,33.0,29.71,SSE,165,0.0,0.0,100,0.00,,,-99.99,,2013-03-19 10:04:00,
2013-03-19 06:13:00,33.0,33.0,29.71,SSE,165,0.0,0.0,100,0.00,,,-99.99,,2013-03-19 10:13:00,
2013-03-19 06:23:00,34.0,34.0,29.71,SW,220,1.0,13.0,100,0.00,,,-99.99,,2013-03-19 10:23:00,
2013-03-19 06:32:00,35.0,35.0,29.73,SSW,213,0.0,10.0,100,0.00,,,-99.99,,2013-03-19 10:32:00,
2013-03-19 06:42:00,35.0,35.0,29.73,SSW,213,0.0,10.0,100,0.00,,,-99.99,,2013-03-19 10:42:00,
2013-03-19 06:52:00,35.0,35.0,29.73,SW,228,0.0,8.0,100,0.00,,,-99.99,,2013-03-19 10:52:00,
2013-03-19 07:02:00,34.0,34.0,29.74,SSW,210,5.0,17.0,100,0.00,,,-99.99,,2013-03-19 11:02:00,
2013-03-19 07:12:00,34.0,34.0,29.74,SSW,210,5.0,17.0,100,0.00,,,-99.99,,2013-03-19 11:12:00,
2013-03-19 07:22:00,34.0,34.0,29.74,SSW,208,4.0,12.0,100,0.00,,,-99.99,,2013-03-19 11:22:00,
2013-03-19 07:33:00,34.0,34.0,29.74,SSW,202,4.0,13.0,100,0.00,,,-99.99,,2013-03-19 11:33:00,
2013-03-19 07:43:00,34.0,34.0,29.74,SSW,202,4.0,13.0,100,0.00,,,-99.99,,2013-03-19 11:43:00,
2013-03-19 07:53:00,34.0,34.0,29.74,SW,214,6.0,14.0,100,0.00,,,-99.99,,2013-03-19 11:53:00,
2013-03-19 08:02:00,34.0,34.0,29.74,SSW,201,7.0,22.0,100,0.00,,,-99.99,,2013-03-19 12:02:00,
2013-03-19 08:12:00,34.0,34.0,29.75,SSW,199,9.0,25.0,100,0.00,,,-99.99,,2013-03-19 12:12:00,
2013-03-19 08:22:00,34.0,34.0,29.75,SSW,199,9.0,25.0,100,0.00,,,-99.99,,2013-03-19 12:22:00,
2013-03-19 08:33:00,34.0,34.0,29.75,SSW,202,7.0,24.0,100,0.00,,,-99.99,,2013-03-19 12:33:00,
2013-03-19 08:42:00,34.0,34.0,29.75,SSW,202,7.0,24.0,100,0.00,,,-99.99,,2013-03-19 12:42:00,
2013-03-19 08:52:00,34.0,34.0,29.74,SSW,202,6.0,14.0,99,0.00,,,-99.99,,2013-03-19 12:52:00,
2013-03-19 09:02:00,35.0,34.0,29.74,SSW,207,5.0,16.0,97,0.00,,,-99.99,,2013-03-19 13:02:00,
2013-03-19 09:12:00,35.0,34.0,29.74,SSW,207,5.0,16.0,97,0.00,,,-99.99,,2013-03-19 13:12:00,
2013-03-19 09:22:00,35.0,34.0,29.74,SSW,207,7.0,18.0,95,0.00,,,-99.99,,2013-03-19 13:22:00,
2013-03-19 09:33:00,35.0,33.0,29.73,SSW,205,8.0,23.0,93,0.00,,,-99.99,,2013-03-19 13:33:00,
2013-03-19 09:42:00,35.0,33.0,29.73,SSW,205,8.0,23.0,93,0.00,,,-99.99,,2013-03-19 13:42:00,
2013-03-19 09:53:00,35.0,33.0,29.73,SSW,208,7.0,20.0,93,0.00,,,-99.99,,2013-03-19 13:53:00,
2013-03-19 10:02:00,36.0,34.0,29.72,SSW,202,6.0,16.0,91,0.00,,,-99.99,,2013-03-19 14:02:00,
2013-03-19 10:12:00,36.0,34.0,29.72,SSW,202,6.0,16.0,91,0.00,,,-99.99,,2013-03-19 14:12:00,
2013-03-19 10:22:00,37.0,35.0,29.71,SSW,196,6.0,14.0,91,0.00,,,-99.99,,2013-03-19 14:22:00,
2013-03-19 10:32:00,37.0,34.0,29.71,SSW,195,7.0,20.0,88,0.00,,,-99.99,,2013-03-19 14:32:00,
2013-03-19 10:42:00,37.0,34.0,29.71,SSW,195,7.0,20.0,88,0.00,,,-99.99,,2013-03-19 14:42:00,
2013-03-19 10:52:00,37.0,34.0,29.70,South,182,6.0,17.0,87,0.00,,,-99.99,,2013-03-19 14:52:00,
2013-03-19 11:02:00,38.0,34.0,29.70,South,183,6.0,9.0,87,0.00,,,-99.99,,2013-03-19 15:02:00,
2013-03-19 11:12:00,38.0,34.0,29.70,South,183,6.0,9.0,87,0.00,,,-99.99,,2013-03-19 15:12:00,
2013-03-19 11:22:00,38.0,34.0,29.70,SSW,192,6.0,17.0,85,0.00,,,-99.99,,2013-03-19 15:22:00,
2013-03-19 11:34:00,38.0,34.0,29.70,SSW,208,8.0,29.0,84,0.00,,,-99.99,,2013-03-19 15:34:00,
2013-03-19 11:43:00,38.0,34.0,29.70,SSW,208,8.0,29.0,84,0.00,,,-99.99,,2013-03-19 15:43:00,
2013-03-19 11:54:00,39.0,34.0,29.70,SSW,199,7.0,21.0,83,0.00,,,-99.99,,2013-03-19 15:54:00,
2013-03-19 12:04:00,39.0,34.0,29.70,SSW,203,7.0,26.0,81,0.00,,,-99.99,,2013-03-19 16:04:00,
2013-03-19 12:13:00,39.0,34.0,29.70,SSW,203,7.0,26.0,81,0.00,,,-99.99,,2013-03-19 16:13:00,
2013-03-19 12:24:00,40.0,35.0,29.70,SW,218,9.0,21.0,81,0.00,,,-99.99,,2013-03-19 16:24:00,
2013-03-19 12:34:00,40.0,34.0,29.70,SSW,201,6.0,17.0,79,0.00,,,-99.99,,2013-03-19 16:34:00,
2013-03-19 12:44:00,40.0,34.0,29.70,SSW,201,6.0,17.0,79,0.00,,,-99.99,,2013-03-19 16:44:00,
2013-03-19 12:54:00,40.0,34.0,29.70,SSW,201,6.0,17.0,79,0.00,,,-99.99,,2013-03-19 16:54:00,
2013-03-19 13:03:00,42.0,35.0,29.70,SSW,199,7.0,21.0,76,0.00,,,-99.99,,2013-03-19 17:03:00,
2013-03-19 13:13:00,43.0,35.0,29.70,South,190,0.0,24.0,73,0.00,,,-99.99,,2013-03-19 17:13:00,
2013-03-19 13:24:00,43.0,35.0,29.70,South,190,0.0,24.0,73,0.00,,,-99.99,,2013-03-19 17:24:00,
2013-03-19 13:34:00,43.0,35.0,29.70,South,188,6.0,21.0,72,0.00,,,-99.99,,2013-03-19 17:34:00,
2013-03-19 13:44:00,43.0,35.0,29.70,South,188,6.0,21.0,72,0.00,,,-99.99,,2013-03-19 17:44:00,
2013-03-19 13:53:00,44.0,35.0,29.70,SSW,201,7.0,27.0,70,0.00,,,-99.99,,2013-03-19 17:53:00,
2013-03-19 14:03:00,44.0,34.0,29.70,SSW,201,7.0,18.0,69,0.00,,,-99.99,,2013-03-19 18:03:00,
2013-03-19 14:13:00,44.0,34.0,29.70,SSW,201,7.0,18.0,69,0.00,,,-99.99,,2013-03-19 18:13:00,
2013-03-19 14:23:00,44.0,34.0,29.70,South,179,7.0,25.0,67,0.00,,,-99.99,,2013-03-19 18:23:00,
2013-03-19 14:33:00,44.0,33.0,29.70,SSE,159,6.0,21.0,65,0.00,,,-99.99,,2013-03-19 18:33:00,
2013-03-19 14:43:00,44.0,33.0,29.70,SSE,159,6.0,21.0,65,0.00,,,-99.99,,2013-03-19 18:43:00,
2013-03-19 14:53:00,44.0,33.0,29.68,SSW,209,5.0,15.0,66,0.00,,,-99.99,,2013-03-19 18:53:00,
2013-03-19 15:02:00,44.0,33.0,29.68,South,181,7.0,27.0,65,0.00,,,-99.99,,2013-03-19 19:02:00,
2013-03-19 15:12:00,44.0,33.0,29.68,South,181,7.0,27.0,65,0.00,,,-99.99,,2013-03-19 19:12:00,
2013-03-19 15:22:00,44.0,33.0,29.68,SSW,200,7.0,20.0,64,0.00,,,-99.99,,2013-03-19 19:22:00,
2013-03-19 15:33:00,45.0,33.0,29.68,South,188,0.0,29.0,62,0.00,,,-99.99,,2013-03-19 19:33:00,
2013-03-19 15:42:00,45.0,33.0,29.68,South,188,0.0,29.0,62,0.00,,,-99.99,,2013-03-19 19:42:00,
2013-03-19 15:53:00,45.0,33.0,29.68,SSW,201,8.0,19.0,62,0.00,,,-99.99,,2013-03-19 19:53:00,
2013-03-19 16:03:00,45.0,32.0,29.70,SSW,209,0.0,23.0,60,0.00,,,-99.99,,2013-03-19 20:03:00,
2013-03-19 16:12:00,45.0,32.0,29.70,South,190,8.0,25.0,61,0.00,,,-99.99,,2013-03-19 20:12:00,
2013-03-19 16:22:00,45.0,32.0,29.70,South,190,8.0,25.0,61,0.00,,,-99.99,,2013-03-19 20:22:00,
2013-03-19 16:33:00,44.0,32.0,29.70,SSW,200,6.0,23.0,62,0.00,,,-99.99,,2013-03-19 20:33:00,
2013-03-19 16:43:00,44.0,32.0,29.70,SSW,200,6.0,23.0,62,0.00,,,-99.99,,2013-03-19 20:43:00,
2013-03-19 16:53:00,43.0,30.0,29.71,SSW,206,8.0,21.0,61,0.00,,,-99.99,,2013-03-19 20:53:00,
2013-03-19 17:02:00,44.0,31.0,29.71,SSW,207,0.0,27.0,59,0.00,,,-99.99,,2013-03-19 21:02:00,
2013-03-19 17:12:00,43.0,30.0,29.73,SSW,199,1.0,27.0,60,0.00,,,-99.99,,2013-03-19 21:12:00,
2013-03-19 17:23:00,43.0,30.0,29.73,SSW,199,1.0,27.0,60,0.00,,,-99.99,,2013-03-19 21:23:00,
2013-03-19 17:34:00,42.0,31.0,29.75,SSE,161,7.0,23.0,65,0.00,,,-99.99,,2013-03-19 21:34:00,
2013-03-19 17:43:00,42.0,31.0,29.75,SSE,161,7.0,23.0,65,0.00,,,-99.99,,2013-03-19 21:43:00,
2013-03-19 17:53:00,41.0,31.0,29.75,South,173,8.0,23.0,66,0.00,,,-99.99,,2013-03-19 21:53:00,
2013-03-19 18:03:00,41.0,31.0,29.78,SSW,193,6.0,17.0,67,0.00,,,-99.99,,2013-03-19 22:03:00,
2013-03-19 18:13:00,40.0,30.0,29.78,SSW,199,7.0,19.0,67,0.00,,,-99.99,,2013-03-19 22:13:00,
2013-03-19 18:23:00,40.0,30.0,29.78,SSW,199,7.0,19.0,67,0.00,,,-99.99,,2013-03-19 22:23:00,
2013-03-19 18:33:00,38.0,28.0,29.78,SSW,201,8.0,19.0,67,0.00,,,-99.99,,2013-03-19 22:33:00,
2013-03-19 18:43:00,38.0,28.0,29.78,SW,214,7.0,19.0,68,0.00,,,-99.99,,2013-03-19 22:43:00,
2013-03-19 18:53:00,38.0,28.0,29.78,SW,214,7.0,19.0,68,0.00,,,-99.99,,2013-03-19 22:53:00,
2013-03-19 19:03:00,38.0,28.0,29.78,SW,214,7.0,19.0,68,0.00,,,-99.99,,2013-03-19 23:03:00,
2013-03-19 19:12:00,36.0,28.0,29.80,SSW,200,6.0,15.0,71,0.00,,,-99.99,,2013-03-19 23:12:00,
2013-03-19 19:22:00,36.0,28.0,29.80,SSW,200,6.0,15.0,71,0.00,,,-99.99,,2013-03-19 23:22:00,
2013-03-19 19:33:00,36.0,28.0,29.80,South,180,6.0,21.0,73,0.00,,,-99.99,,2013-03-19 23:33:00,
2013-03-19 19:43:00,36.0,28.0,29.80,South,180,6.0,21.0,73,0.00,,,-99.99,,2013-03-19 23:43:00,
2013-03-19 19:53:00,35.0,28.0,29.80,South,189,7.0,22.0,74,0.00,,,-99.99,,2013-03-19 23:53:00,
2013-03-19 20:03:00,35.0,28.0,29.81,SW,222,6.0,16.0,74,0.00,,,-99.99,,2013-03-20 00:03:00,
2013-03-19 20:13:00,35.0,28.0,29.81,SW,222,6.0,16.0,74,0.00,,,-99.99,,2013-03-20 00:13:00,
2013-03-19 20:22:00,35.0,28.0,29.81,SSW,198,7.0,19.0,75,0.00,,,-99.99,,2013-03-20 00:22:00,
2013-03-19 20:33:00,34.0,27.0,29.83,SSW,212,8.0,21.0,76,0.00,,,-99.99,,2013-03-20 00:33:00,
2013-03-19 20:42:00,34.0,27.0,29.83,SSW,212,8.0,21.0,76,0.00,,,-99.99,,2013-03-20 00:42:00,
2013-03-19 20:52:00,34.0,27.0,29.83,SSW,199,7.0,19.0,76,0.00,,,-99.99,,2013-03-20 00:52:00,
2013-03-19 21:03:00,34.0,27.0,29.83,SSW,202,6.0,15.0,76,0.00,,,-99.99,,2013-03-20 01:03:00,
2013-03-19 21:12:00,35.0,28.0,29.83,SSW,207,7.0,21.0,75,0.00,,,-99.99,,2013-03-20 01:12:00,
2013-03-19 21:22:00,35.0,28.0,29.83,SSW,207,7.0,21.0,75,0.00,,,-99.99,,2013-03-20 01:22:00,
2013-03-19 21:32:00,34.0,27.0,29.83,SSW,199,7.0,18.0,75,0.00,,,-99.99,,2013-03-20 01:32:00,
2013-03-19 21:42:00,34.0,27.0,29.83,SSW,199,7.0,18.0,75,0.00,,,-99.99,,2013-03-20 01:42:00,
2013-03-19 21:53:00,33.0,27.0,29.84,SSW,204,7.0,21.0,79,0.00,,,-99.99,,2013-03-20 01:53:00,
2013-03-19 22:02:00,33.0,28.0,29.85,SW,219,6.0,20.0,80,0.00,,,-99.99,,2013-03-20 02:02:00,
2013-03-19 22:12:00,33.0,28.0,29.85,SW,219,6.0,20.0,80,0.00,,,-99.99,,2013-03-20 02:12:00,
2013-03-19 22:22:00,33.0,27.0,29.85,South,173,6.0,17.0,77,0.00,,,-99.99,,2013-03-20 02:22:00,
2013-03-19 22:32:00,33.0,26.0,29.86,SW,217,8.0,23.0,76,0.00,,,-99.99,,2013-03-20 02:32:00,
2013-03-19 22:42:00,33.0,26.0,29.86,SW,217,8.0,23.0,76,0.00,,,-99.99,,2013-03-20 02:42:00,
2013-03-19 22:53:00,33.0,26.0,29.86,SW,225,9.0,26.0,75,0.00,,,-99.99,,2013-03-20 02:53:00,
2013-03-19 23:02:00,32.0,25.0,29.87,SSW,210,7.0,18.0,76,0.00,,,-99.99,,2013-03-20 03:02:00,
2013-03-19 23:12:00,32.0,25.0,29.87,SSW,195,0.0,27.0,76,0.00,,,-99.99,,2013-03-20 03:12:00,
2013-03-19 23:22:00,32.0,25.0,29.87,SSW,195,0.0,27.0,76,0.00,,,-99.99,,2013-03-20 03:22:00,
2013-03-19 23:34:00,32.0,26.0,29.88,SW,214,6.0,17.0,77,0.00,,,-99.99,,2013-03-20 03:34:00,
2013-03-19 23:42:00,32.0,26.0,29.88,SW,214,6.0,17.0,77,0.00,,,-99.99,,2013-03-20 03:42:00,
2013-03-19 23:53:00,32.0,26.0,29.88,SSW,200,5.0,12.0,78,0.00,,,-99.99,,2013-03-20 03:53:00,